createdAt,value
2022-11-03T00:02:11.550Z,101036.66
2022-11-03T00:04:38.748Z,101032.38
2022-11-03T00:07:05.864Z,101043.47
2022-11-03T00:09:32.997Z,101036.59
2022-11-03T00:12:00.453Z,101040.00
2022-11-03T00:14:28.154Z,101036.56
2022-11-03T00:16:55.503Z,101033.09
2022-11-03T00:19:22.603Z,101031.38
2022-11-03T00:21:50.157Z,101031.38
2022-11-03T00:24:17.233Z,101029.59
2022-11-03T00:26:44.385Z,101028.72
2022-11-03T00:29:14.985Z,101040.78
2022-11-03T00:31:44.511Z,101036.47
2022-11-03T00:34:12.024Z,101033.00
2022-11-03T00:36:41.505Z,101033.84
2022-11-03T00:39:09.424Z,101024.31
2022-11-03T00:41:37.160Z,101026.03
2022-11-03T00:44:04.484Z,101030.31
2022-11-03T00:46:35.635Z,101027.69
2022-11-03T00:49:04.910Z,101025.97
2022-11-03T00:51:32.132Z,101029.38
2022-11-03T00:54:01.071Z,101024.22
2022-11-03T00:56:34.153Z,101029.31
2022-11-03T00:59:02.996Z,101029.25
2022-11-03T01:01:42.308Z,101029.19
2022-11-03T01:04:30.743Z,101027.47
2022-11-03T01:06:59.968Z,101036.06
2022-11-03T01:09:30.167Z,101033.47
2022-11-03T01:12:03.510Z,101042.06
2022-11-03T01:14:48.279Z,101043.75
2022-11-03T01:17:18.570Z,101042.00
2022-11-03T01:19:46.432Z,101040.25
2022-11-03T01:22:14.270Z,101039.38
2022-11-03T01:24:42.335Z,101036.75
2022-11-03T01:27:11.281Z,101044.50
2022-11-03T01:29:38.437Z,101035.00
2022-11-03T01:32:05.904Z,101041.03
2022-11-03T01:34:33.014Z,101044.50
2022-11-03T01:37:00.286Z,101051.34
2022-11-03T01:39:27.370Z,101050.41
2022-11-03T01:41:54.623Z,101037.44
2022-11-03T01:44:37.287Z,101037.44
2022-11-03T01:47:25.188Z,101044.28
2022-11-03T01:50:08.587Z,101031.34
2022-11-03T01:52:43.160Z,101040.75
2022-11-03T01:55:19.253Z,101037.31
2022-11-03T01:57:56.214Z,101038.13
2022-11-03T02:00:23.349Z,101037.28
2022-11-03T02:02:51.105Z,101026.91
2022-11-03T02:05:20.043Z,101021.81
2022-11-03T02:07:59.422Z,101035.56
2022-11-03T02:10:26.552Z,101026.97
2022-11-03T02:12:53.985Z,101026.91
2022-11-03T02:15:22.476Z,101018.34
2022-11-03T02:17:52.534Z,101020.03
2022-11-03T02:20:24.250Z,101012.34
2022-11-03T02:23:28.504Z,101014.91
2022-11-03T02:25:59.223Z,101016.66
2022-11-03T02:28:29.682Z,101020.06
2022-11-03T02:31:18.404Z,101014.88
2022-11-03T02:33:58.048Z,101011.38
2022-11-03T02:36:35.318Z,101012.97
2022-11-03T02:39:19.064Z,101009.63
2022-11-03T02:41:48.595Z,101016.53
2022-11-03T02:44:18.625Z,101004.38
2022-11-03T02:46:49.303Z,101016.47
2022-11-03T02:49:16.903Z,101013.00
2022-11-03T02:51:43.915Z,101006.19
2022-11-03T02:54:20.910Z,101010.47
2022-11-03T02:56:56.110Z,101011.34
2022-11-03T03:00:09.694Z,101008.78
2022-11-03T03:02:46.554Z,101012.22
2022-11-03T03:05:16.863Z,101010.47
2022-11-03T03:07:46.345Z,101009.63
2022-11-03T03:10:20.384Z,101011.28
2022-11-03T03:12:51.615Z,101018.16
2022-11-03T03:15:22.868Z,101023.28
2022-11-03T03:17:54.188Z,101023.22
2022-11-03T03:20:27.102Z,101028.38
2022-11-03T03:22:59.215Z,101033.53
2022-11-03T03:25:35.230Z,101023.16
2022-11-03T03:28:19.702Z,101019.72
2022-11-03T03:30:49.212Z,101017.16
2022-11-03T03:33:18.642Z,101023.97
2022-11-03T03:35:49.306Z,101021.31
2022-11-03T03:38:23.216Z,101020.47
2022-11-03T03:40:53.984Z,101021.28
2022-11-03T03:43:24.353Z,101025.50
2022-11-03T03:45:52.819Z,101026.31
2022-11-03T03:48:20.431Z,101021.09
2022-11-03T03:50:50.034Z,101017.53
2022-11-03T03:53:19.538Z,101021.81
2022-11-03T03:55:49.705Z,101019.25
2022-11-03T03:58:17.773Z,101025.25
2022-11-03T04:00:45.279Z,101026.09
2022-11-03T04:03:18.107Z,101021.81
2022-11-03T04:05:45.914Z,101015.81
2022-11-03T04:08:14.812Z,101004.56
2022-11-03T04:11:01.825Z,101015.72
2022-11-03T04:13:47.704Z,101019.19
2022-11-03T04:16:33.702Z,101013.88
2022-11-03T04:19:19.505Z,101014.81
2022-11-03T04:22:05.153Z,101013.88
2022-11-03T04:24:32.396Z,101006.97
2022-11-03T04:27:05.784Z,101008.69
2022-11-03T04:29:32.995Z,101008.63
2022-11-03T04:32:00.145Z,101010.41
2022-11-03T04:34:27.225Z,101009.63
2022-11-03T04:36:54.344Z,101013.06
2022-11-03T04:39:21.443Z,101010.41
2022-11-03T04:41:48.671Z,101014.72
2022-11-03T04:44:17.063Z,101015.56
2022-11-03T04:46:46.845Z,101015.50
2022-11-03T04:49:22.627Z,101019.78
2022-11-03T04:51:50.504Z,101015.47
2022-11-03T04:54:21.814Z,101017.13
2022-11-03T04:56:49.059Z,101018.84
2022-11-03T04:59:17.494Z,101013.69
2022-11-03T05:01:46.029Z,101012.81
2022-11-03T05:04:16.712Z,101002.47
2022-11-03T05:06:53.865Z,101009.31
2022-11-03T05:09:26.748Z,101003.22
2022-11-03T05:11:54.511Z,101016.94
2022-11-03T05:14:24.905Z,101006.66
2022-11-03T05:16:54.033Z,101009.13
2022-11-03T05:19:25.084Z,101009.13
2022-11-03T05:21:54.927Z,101016.84
2022-11-03T05:24:26.251Z,101009.91
2022-11-03T05:26:56.290Z,101009.00
2022-11-03T05:29:25.743Z,101007.31
2022-11-03T05:31:54.340Z,101011.53
2022-11-03T05:34:30.725Z,101010.56
2022-11-03T05:37:25.864Z,101016.53
2022-11-03T05:39:57.597Z,101010.38
2022-11-03T05:42:32.346Z,101014.59
2022-11-03T05:45:02.303Z,101013.66
2022-11-03T05:47:39.161Z,101007.56
2022-11-03T05:50:35.753Z,101018.75
2022-11-03T05:53:25.384Z,101019.53
2022-11-03T05:55:52.736Z,101016.97
2022-11-03T05:58:27.763Z,101022.88
2022-11-03T06:00:55.576Z,101021.19
2022-11-03T06:03:31.421Z,101019.44
2022-11-03T06:06:00.252Z,101019.53
2022-11-03T06:08:33.853Z,101025.47
2022-11-03T06:11:03.656Z,101029.81
2022-11-03T06:13:35.318Z,101020.41
2022-11-03T06:16:26.625Z,101032.47
2022-11-03T06:18:53.743Z,100997.13
2022-11-03T06:21:24.735Z,101026.56
2022-11-03T06:23:53.348Z,101021.47
2022-11-03T06:26:27.458Z,101020.59
2022-11-03T06:28:55.903Z,101031.84
2022-11-03T06:31:31.937Z,101029.22
2022-11-03T06:33:59.649Z,101032.72
2022-11-03T06:36:30.708Z,101029.31
2022-11-03T06:39:03.470Z,101038.84
2022-11-03T06:41:36.350Z,101032.03
2022-11-03T06:44:30.095Z,101030.44
2022-11-03T06:47:01.797Z,101036.47
2022-11-03T06:49:31.355Z,101027.00
2022-11-03T06:52:02.835Z,101039.09
2022-11-03T06:54:29.992Z,101034.91
2022-11-03T06:56:57.146Z,101035.84
2022-11-03T06:59:25.028Z,101040.09
2022-11-03T07:01:55.644Z,101025.56
2022-11-03T07:04:28.847Z,101034.22
2022-11-03T07:07:00.746Z,101029.94
2022-11-03T07:09:28.179Z,101023.09
2022-11-03T07:12:01.094Z,101022.34
2022-11-03T07:14:31.515Z,101028.47
2022-11-03T07:17:02.866Z,101024.13
2022-11-03T07:19:34.638Z,101024.16
2022-11-03T07:22:05.944Z,101015.56
2022-11-03T07:24:41.194Z,101017.41
2022-11-03T07:27:11.236Z,101015.72
2022-11-03T07:29:38.385Z,101015.72
2022-11-03T07:32:21.811Z,101014.13
2022-11-03T07:34:50.617Z,101017.69
2022-11-03T07:37:21.794Z,101010.13
2022-11-03T07:39:51.035Z,101007.66
2022-11-03T07:42:21.185Z,100999.13
2022-11-03T07:44:50.026Z,101006.94
2022-11-03T07:47:26.074Z,101009.63
2022-11-03T07:49:55.305Z,101002.81
2022-11-03T07:52:26.367Z,101003.81
2022-11-03T07:54:57.405Z,101003.13
2022-11-03T07:57:31.605Z,100982.59
2022-11-03T08:00:08.907Z,101003.56
2022-11-03T08:02:43.412Z,100996.91
2022-11-03T08:05:10.935Z,100991.88
2022-11-03T08:07:38.257Z,100992.94
2022-11-03T08:10:07.597Z,100984.50
2022-11-03T08:12:34.827Z,100990.66
2022-11-03T08:15:01.999Z,100982.16
2022-11-03T08:17:29.075Z,100971.91
2022-11-03T08:19:56.301Z,100968.53
2022-11-03T08:22:26.161Z,100966.00
2022-11-03T08:24:53.765Z,100968.66
2022-11-03T08:27:21.056Z,100970.41
2022-11-03T08:29:48.533Z,100971.31
2022-11-03T08:32:15.693Z,100963.56
2022-11-03T08:34:42.818Z,100960.97
2022-11-03T08:37:09.850Z,100961.00
2022-11-03T08:39:37.285Z,100949.81
2022-11-03T08:42:04.492Z,100955.00
2022-11-03T08:44:31.656Z,100956.72
2022-11-03T08:46:58.860Z,100954.13
2022-11-03T08:49:26.213Z,100948.13
2022-11-03T08:51:53.359Z,100941.19
2022-11-03T08:54:20.546Z,100945.50
2022-11-03T08:56:49.122Z,100939.47
2022-11-03T08:59:18.328Z,100936.88
2022-11-03T09:01:45.675Z,100939.47
2022-11-03T09:04:12.950Z,100942.94
2022-11-03T09:06:41.493Z,100935.19
2022-11-03T09:11:55.769Z,100929.97
2022-11-03T09:14:22.989Z,100922.22
2022-11-03T09:16:50.163Z,100925.66
2022-11-03T09:19:17.384Z,100926.53
2022-11-03T09:21:44.569Z,100928.25
2022-11-03T09:24:11.697Z,100911.84
2022-11-03T09:26:38.946Z,100918.75
2022-11-03T09:29:06.113Z,100913.56
2022-11-03T09:31:33.435Z,100906.66
2022-11-03T09:34:00.528Z,100910.09
2022-11-03T09:36:27.627Z,100911.84
2022-11-03T09:38:54.713Z,100902.31
2022-11-03T09:41:27.745Z,100910.09
2022-11-03T09:44:03.022Z,100913.56
2022-11-03T09:46:30.805Z,100911.84
2022-11-03T09:48:59.798Z,100911.84
2022-11-03T09:51:28.281Z,100915.28
2022-11-03T09:54:02.149Z,100911.81
2022-11-03T09:56:30.513Z,100887.66
2022-11-03T09:58:57.692Z,100908.34
2022-11-03T10:01:25.291Z,100904.88
2022-11-03T10:03:52.984Z,100904.84
2022-11-03T10:06:21.540Z,100901.41
2022-11-03T10:08:49.628Z,100895.34
2022-11-03T10:11:16.774Z,100894.47
2022-11-03T10:13:50.614Z,100894.44
2022-11-03T10:16:21.348Z,100900.44
2022-11-03T10:18:49.705Z,100897.84
2022-11-03T10:21:26.218Z,100903.84
2022-11-03T10:23:53.372Z,100904.72
2022-11-03T10:26:21.035Z,100890.88
2022-11-03T10:29:05.194Z,100898.69
2022-11-03T10:31:33.946Z,100892.66
2022-11-03T10:34:01.224Z,100889.16
2022-11-03T10:36:31.265Z,100890.06
2022-11-03T10:38:59.114Z,100890.06
2022-11-03T10:41:30.675Z,100886.56
2022-11-03T10:44:04.661Z,100881.41
2022-11-03T10:49:21.121Z,100879.69
2022-11-03T10:51:51.565Z,100883.97
2022-11-03T10:54:21.811Z,100877.06
2022-11-03T10:56:49.762Z,100882.25
2022-11-03T10:59:22.814Z,100873.59
2022-11-03T11:01:50.037Z,100871.88
2022-11-03T11:04:19.222Z,100860.66
2022-11-03T11:06:47.069Z,100861.53
2022-11-03T11:09:20.060Z,100844.25
2022-11-03T11:12:01.230Z,100842.50
2022-11-03T11:14:28.504Z,100837.31
2022-11-03T11:16:57.553Z,100828.69
2022-11-03T11:19:26.933Z,100820.00
2022-11-03T11:21:53.943Z,100814.81
2022-11-03T11:24:45.676Z,100806.19
2022-11-03T11:27:45.194Z,100804.41
2022-11-03T11:30:21.072Z,100801.78
2022-11-03T11:32:56.978Z,100797.47
2022-11-03T11:35:24.111Z,100792.28
2022-11-03T11:37:51.327Z,100791.41
2022-11-03T11:40:24.304Z,100790.53
2022-11-03T11:43:06.897Z,100790.50
2022-11-03T11:46:11.778Z,100782.66
2022-11-03T11:48:38.913Z,100775.75
2022-11-03T11:51:11.454Z,100769.63
2022-11-03T11:53:41.633Z,100764.41
2022-11-03T11:56:18.727Z,100763.56
2022-11-03T11:58:49.742Z,100757.47
2022-11-03T12:01:34.827Z,100750.59
2022-11-03T12:04:31.922Z,100747.09
2022-11-03T12:06:59.713Z,100744.47
2022-11-03T12:09:28.327Z,100742.72
2022-11-03T12:12:05.219Z,100740.09
2022-11-03T12:14:37.119Z,100741.78
2022-11-03T12:17:19.403Z,100733.16
2022-11-03T12:19:54.457Z,100722.75
2022-11-03T12:22:24.435Z,100722.66
2022-11-03T12:24:58.201Z,100726.06
2022-11-03T12:27:25.363Z,100718.25
2022-11-03T12:29:54.500Z,100721.66
2022-11-03T12:32:37.396Z,100716.47
2022-11-03T12:35:06.119Z,100718.22
2022-11-03T12:37:33.254Z,100712.16
2022-11-03T12:40:00.773Z,100712.16
2022-11-03T12:42:27.953Z,100708.69
2022-11-03T12:44:55.145Z,100694.03
2022-11-03T12:47:22.238Z,100696.56
2022-11-03T12:49:49.708Z,100700.00
2022-11-03T12:52:16.875Z,100691.38
2022-11-03T12:54:43.980Z,100682.69
2022-11-03T12:57:11.072Z,100680.94
2022-11-03T12:59:38.174Z,100675.75
2022-11-03T13:02:05.541Z,100667.16
2022-11-03T13:04:32.785Z,100664.59
2022-11-03T13:06:59.937Z,100655.09
2022-11-03T13:09:27.062Z,100657.72
2022-11-03T13:12:12.752Z,100656.00
2022-11-03T13:14:43.212Z,100651.66
2022-11-03T13:17:13.538Z,100643.03
2022-11-03T13:19:40.725Z,100639.53
2022-11-03T13:22:07.913Z,100625.75
2022-11-03T13:24:34.994Z,100622.34
2022-11-03T13:27:02.229Z,100618.88
2022-11-03T13:29:34.924Z,100613.72
2022-11-03T13:32:04.077Z,100608.56
2022-11-03T13:34:31.969Z,100612.06
2022-11-03T13:36:59.317Z,100607.75
2022-11-03T13:39:26.970Z,100593.13
2022-11-03T13:41:54.093Z,100599.13
2022-11-03T13:44:21.595Z,100602.66
2022-11-03T13:46:48.875Z,100594.03
2022-11-03T13:49:59.290Z,100587.13
2022-11-03T13:52:03.672Z,100584.56
2022-11-03T14:00:07.195Z,100566.59
2022-11-03T14:05:28.155Z,100564.06
2022-11-03T14:07:55.187Z,100564.09
2022-11-03T14:10:22.253Z,100562.41
2022-11-03T14:12:49.415Z,100555.56
2022-11-03T14:15:16.614Z,100562.47
2022-11-03T14:17:43.666Z,100551.28
2022-11-03T14:20:13.262Z,100559.06
2022-11-03T14:22:41.115Z,100559.13
2022-11-03T14:25:08.616Z,100567.72
2022-11-03T14:27:35.810Z,100566.06
2022-11-03T14:30:04.170Z,100568.69
2022-11-03T14:32:31.386Z,100563.53
2022-11-03T14:34:58.513Z,100564.47
2022-11-03T14:37:25.944Z,100564.53
2022-11-03T14:39:53.121Z,100561.13
2022-11-03T14:42:20.394Z,100554.28
2022-11-03T14:44:48.172Z,100558.59
2022-11-03T14:47:21.801Z,100561.25
2022-11-03T14:49:49.759Z,100563.91
2022-11-03T14:52:18.002Z,100559.63
2022-11-03T14:54:45.242Z,100554.50
2022-11-03T14:57:12.467Z,100559.72
2022-11-03T14:59:39.805Z,100540.78
2022-11-03T15:02:07.544Z,100546.88
2022-11-03T15:04:34.933Z,100529.69
2022-11-03T15:07:02.223Z,100534.88
2022-11-03T15:09:29.446Z,100533.16
2022-11-03T15:11:56.672Z,100527.16
2022-11-03T15:14:23.864Z,100528.88
2022-11-03T15:16:51.077Z,100525.47
2022-11-03T15:19:18.225Z,100515.16
2022-11-03T15:21:45.461Z,100520.34
2022-11-03T15:26:59.879Z,100512.69
2022-11-03T15:29:27.078Z,100513.53
2022-11-03T15:31:54.203Z,100518.75
2022-11-03T15:34:21.318Z,100514.41
2022-11-03T15:36:48.468Z,100506.66
2022-11-03T15:39:16.257Z,100492.06
2022-11-03T15:41:43.317Z,100498.09
2022-11-03T15:44:10.505Z,100499.81
2022-11-03T15:46:37.662Z,100500.69
2022-11-03T15:49:04.742Z,100495.50
2022-11-03T15:51:32.074Z,100487.78
2022-11-03T15:53:59.553Z,100487.78
2022-11-03T15:56:27.659Z,100474.03
2022-11-03T15:58:55.092Z,100487.81
2022-11-03T16:01:22.659Z,100479.22
2022-11-03T16:03:50.098Z,100467.19
2022-11-03T16:06:17.177Z,100470.63
2022-11-03T16:08:44.454Z,100474.97
2022-11-03T16:11:11.547Z,100469.78
2022-11-03T16:13:39.568Z,100463.78
2022-11-03T16:16:07.305Z,100463.78
2022-11-03T16:18:35.078Z,100455.19
2022-11-03T16:21:02.366Z,100451.75
2022-11-03T16:23:29.566Z,100455.22
2022-11-03T16:25:56.936Z,100448.31
2022-11-03T16:28:24.476Z,100452.63
2022-11-03T16:30:54.600Z,100441.44
2022-11-03T16:33:21.966Z,100436.28
2022-11-03T16:35:49.845Z,100434.59
2022-11-03T16:38:17.275Z,100436.31
2022-11-03T16:40:44.678Z,100429.44
2022-11-03T16:43:12.439Z,100403.66
2022-11-03T16:45:39.734Z,100420.84
2022-11-03T16:48:07.544Z,100421.69
2022-11-03T16:50:35.618Z,100415.69
2022-11-03T16:53:03.563Z,100426.91
2022-11-03T16:55:30.693Z,100419.16
2022-11-03T16:57:58.085Z,100414.84
2022-11-03T17:00:25.395Z,100415.72
2022-11-03T17:02:52.693Z,100413.13
2022-11-03T17:05:21.355Z,100403.69
2022-11-03T17:07:53.774Z,100376.19
2022-11-03T17:10:22.536Z,100396.78
2022-11-03T17:12:50.337Z,100394.19
2022-11-03T17:15:17.798Z,100377.84
2022-11-03T17:17:45.033Z,100377.88
2022-11-03T17:20:12.937Z,100379.63
2022-11-03T17:22:40.109Z,100371.84
2022-11-03T17:25:12.145Z,100367.53
2022-11-03T17:27:47.967Z,100372.72
2022-11-03T17:30:23.013Z,100364.09
2022-11-03T17:33:13.410Z,100354.66
2022-11-03T17:35:42.278Z,100346.94
2022-11-03T17:38:15.695Z,100350.38
2022-11-03T17:40:45.646Z,100353.81
2022-11-03T17:43:23.421Z,100357.25
2022-11-03T17:45:50.813Z,100347.81
2022-11-03T17:48:18.437Z,100346.97
2022-11-03T17:50:48.456Z,100345.22
2022-11-03T17:53:24.120Z,100346.94
2022-11-03T17:56:23.273Z,100335.78
2022-11-03T17:58:45.938Z,100334.94
2022-11-03T18:01:19.636Z,100333.19
2022-11-03T18:03:46.825Z,100331.50
2022-11-03T18:06:19.594Z,100316.88
2022-11-03T18:08:48.377Z,100323.78
2022-11-03T18:11:42.785Z,100321.19
2022-11-03T18:14:09.985Z,100321.22
2022-11-03T18:16:37.441Z,100300.56
2022-11-03T18:19:04.793Z,100305.72
2022-11-03T18:21:32.004Z,100304.00
2022-11-03T18:23:59.339Z,100297.13
2022-11-03T18:26:27.487Z,100298.84
2022-11-03T18:28:54.862Z,100281.66
2022-11-03T18:31:33.731Z,100286.81
2022-11-03T18:34:05.466Z,100286.81
2022-11-03T18:36:36.624Z,100283.38
2022-11-03T18:39:04.943Z,100281.66
2022-11-03T18:41:41.112Z,100271.31
2022-11-03T18:44:25.143Z,100257.59
2022-11-03T18:46:52.969Z,100255.84
2022-11-03T18:49:20.411Z,100261.00
2022-11-03T18:51:59.205Z,100254.16
2022-11-03T18:54:30.889Z,100252.44
2022-11-03T18:56:58.537Z,100251.59
2022-11-03T18:59:31.099Z,100247.28
2022-11-03T19:01:58.595Z,100236.97
2022-11-03T19:04:25.768Z,100225.78
2022-11-03T19:06:53.233Z,100218.09
2022-11-03T19:09:24.735Z,100211.19
2022-11-03T19:11:54.946Z,100201.72
2022-11-03T19:14:34.824Z,100203.47
2022-11-03T19:19:54.034Z,100201.75
2022-11-03T19:22:23.036Z,100192.31
2022-11-03T19:24:50.494Z,100190.59
2022-11-03T19:27:23.036Z,100195.75
2022-11-03T19:29:50.280Z,100185.44
2022-11-03T19:32:25.950Z,100182.00
2022-11-03T19:35:08.637Z,100177.69
2022-11-03T19:37:36.583Z,100176.84
2022-11-03T19:40:09.158Z,100170.00
2022-11-03T19:42:39.879Z,100169.13
2022-11-03T19:45:08.045Z,100170.84
2022-11-03T19:47:44.433Z,100170.00
2022-11-03T19:50:28.894Z,100152.81
2022-11-03T19:53:03.905Z,100150.22
2022-11-03T19:55:34.509Z,100142.50
2022-11-03T19:58:17.915Z,100140.78
2022-11-03T20:00:46.330Z,100137.34
2022-11-03T20:03:14.295Z,100135.63
2022-11-03T20:05:46.628Z,100133.91
2022-11-03T20:08:19.791Z,100127.06
2022-11-03T20:10:48.326Z,100131.34
2022-11-03T20:13:18.430Z,100121.91
2022-11-03T20:15:45.784Z,100115.88
2022-11-03T20:18:13.629Z,100107.25
2022-11-03T20:20:42.143Z,100116.75
2022-11-03T20:23:25.882Z,100103.84
2022-11-03T20:25:54.016Z,100103.00
2022-11-03T20:28:25.377Z,100103.00
2022-11-03T20:30:53.861Z,100106.44
2022-11-03T20:33:22.964Z,100107.28
2022-11-03T20:35:52.624Z,100097.84
2022-11-03T20:38:21.086Z,100099.56
2022-11-03T20:40:51.534Z,100099.56
2022-11-03T20:43:29.423Z,100099.56
2022-11-03T20:45:57.351Z,100089.28
2022-11-03T20:48:25.004Z,100092.72
2022-11-03T20:50:53.460Z,100082.41
2022-11-03T20:53:23.276Z,100075.53
2022-11-03T20:55:51.386Z,100072.94
2022-11-03T20:58:18.745Z,100066.94
2022-11-03T21:00:47.984Z,100064.34
2022-11-03T21:03:38.160Z,100053.22
2022-11-03T21:06:12.915Z,100044.63
2022-11-03T21:08:40.229Z,100044.63
2022-11-03T21:11:25.117Z,100043.78
2022-11-03T21:13:54.809Z,100013.75
2022-11-03T21:16:41.350Z,100041.19
2022-11-03T21:19:37.088Z,100027.44
2022-11-03T21:22:51.436Z,100033.47
2022-11-03T21:25:04.936Z,100033.47
2022-11-03T21:27:32.106Z,100027.44
2022-11-03T21:30:00.234Z,100022.31
2022-11-03T21:32:27.521Z,100010.25
2022-11-03T21:34:54.616Z,100011.97
2022-11-03T21:37:21.797Z,100018.88
2022-11-03T21:39:48.925Z,100005.19
2022-11-03T21:42:35.384Z,100013.72
2022-11-03T21:45:02.716Z,100005.16
2022-11-03T21:47:30.015Z,100005.16
2022-11-03T21:49:57.394Z,99997.41
2022-11-03T21:52:33.738Z,99995.69
2022-11-03T21:55:02.618Z,100001.69
2022-11-03T21:57:30.693Z,99992.22
2022-11-03T22:00:01.234Z,99989.63
2022-11-03T22:02:30.264Z,99986.22
2022-11-03T22:04:58.258Z,99982.78
2022-11-03T22:07:25.573Z,99977.56
2022-11-03T22:09:52.778Z,99969.00
2022-11-03T22:12:19.965Z,99968.97
2022-11-03T22:15:06.012Z,99948.38
2022-11-03T22:17:33.225Z,99953.50
2022-11-03T22:20:18.915Z,99946.63
2022-11-03T22:23:04.453Z,99928.59
2022-11-03T22:25:50.054Z,99931.16
2022-11-03T22:28:17.537Z,99925.97
2022-11-03T22:31:03.296Z,99920.81
2022-11-03T22:33:30.595Z,99907.06
2022-11-03T22:36:21.559Z,99903.63
2022-11-03T22:39:07.984Z,99912.19
2022-11-03T22:41:54.890Z,99919.88
2022-11-03T22:44:40.463Z,99911.28
2022-11-03T22:47:08.527Z,99908.72
2022-11-03T22:49:36.161Z,99896.69
2022-11-03T22:52:03.582Z,99888.09
2022-11-03T22:54:30.886Z,99889.81
2022-11-03T22:56:58.214Z,99882.88
2022-11-03T22:59:25.416Z,99879.47
2022-11-03T23:01:52.957Z,99877.72
2022-11-03T23:04:20.456Z,99863.94
2022-11-03T23:06:47.678Z,99872.50
2022-11-03T23:09:14.753Z,99869.91
2022-11-03T23:11:41.995Z,99870.78
2022-11-03T23:14:11.294Z,99869.03
2022-11-03T23:16:42.823Z,99862.16
2022-11-03T23:19:33.972Z,99853.59
2022-11-03T23:22:01.883Z,99860.47
2022-11-03T23:24:47.807Z,99858.72
2022-11-03T23:27:14.945Z,99853.59
2022-11-03T23:29:42.025Z,99826.19
2022-11-03T23:32:09.221Z,99845.00
2022-11-03T23:34:36.275Z,99846.66
2022-11-03T23:37:03.702Z,99844.94
2022-11-03T23:39:30.720Z,99841.50
2022-11-03T23:41:57.933Z,99838.03
2022-11-03T23:44:25.185Z,99826.06
2022-11-03T23:47:10.634Z,99838.03
2022-11-03T23:49:37.710Z,99826.88
2022-11-03T23:52:04.740Z,99826.03
2022-11-03T23:54:31.855Z,99824.31
2022-11-03T23:57:17.697Z,99822.56
